createdAt,value
2022-12-11T00:11:54.784Z,96
2022-12-11T00:25:59.017Z,96
2022-12-11T00:40:06.440Z,95.5
2022-12-11T00:54:13.003Z,97
2022-12-11T01:08:19.430Z,96.9
2022-12-11T01:22:26.029Z,97.1
2022-12-11T01:36:36.295Z,96.3
2022-12-11T01:50:42.260Z,96.9
2022-12-11T02:04:50.580Z,96.2
2022-12-11T02:18:58.826Z,95.9
2022-12-11T02:33:05.972Z,97
2022-12-11T02:47:11.532Z,98.7
2022-12-11T03:01:16.001Z,100.3
2022-12-11T03:15:20.314Z,99.6
2022-12-11T03:29:25.029Z,101.1
2022-12-11T03:43:27.422Z,102.5
2022-12-11T03:57:35.404Z,104.1
2022-12-11T04:11:40.845Z,104.6
2022-12-11T04:25:45.464Z,105
2022-12-11T05:50:12.582Z,107.6
2022-12-11T06:04:47.638Z,108.3
2022-12-11T06:18:58.141Z,107
2022-12-11T06:33:16.294Z,107.6
2022-12-11T06:51:40.608Z,107.8
2022-12-11T07:53:49.770Z,104.4
2022-12-11T10:17:28.124Z,108.6
2022-12-11T10:31:27.440Z,110.3
2022-12-11T10:45:38.589Z,110.4
2022-12-11T10:59:43.050Z,111.3
2022-12-11T11:13:50.742Z,111.4
2022-12-11T11:27:59.832Z,113.4
2022-12-11T11:42:12.701Z,114.1
2022-12-11T11:56:23.349Z,115.6
2022-12-11T12:10:20.375Z,115.8
2022-12-11T12:24:23.996Z,117
2022-12-11T12:38:28.775Z,116
2022-12-11T12:52:34.638Z,116
2022-12-11T13:06:45.132Z,114.1
2022-12-11T13:20:49.241Z,114.9
2022-12-11T13:34:54.620Z,115.5
2022-12-11T13:49:01.460Z,116
2022-12-11T14:03:12.164Z,116.1
2022-12-11T14:17:21.805Z,116
2022-12-11T14:31:27.086Z,115.2
2022-12-11T14:45:32.066Z,115.6
2022-12-11T14:59:37.094Z,115.4
2022-12-11T15:13:42.492Z,114.9
2022-12-11T15:27:47.189Z,114.1
2022-12-11T15:41:56.819Z,113.6
2022-12-11T15:56:03.215Z,114.3
2022-12-11T16:10:07.614Z,113.1
2022-12-11T16:24:17.472Z,113.3
2022-12-11T16:38:27.234Z,112.6
2022-12-11T16:52:32.303Z,113.4
2022-12-11T17:06:35.600Z,113.8
2022-12-11T17:20:39.406Z,113
2022-12-11T17:34:46.455Z,112.8
2022-12-11T17:48:54.490Z,113.3
2022-12-11T18:03:01.855Z,113.7
2022-12-11T18:17:11.915Z,111.6
2022-12-11T18:31:14.613Z,110.4
2022-12-11T18:45:24.399Z,110.7
2022-12-11T18:59:33.010Z,110.8
2022-12-11T19:13:37.898Z,109.9
2022-12-11T19:27:43.583Z,110.6
2022-12-11T19:41:49.191Z,110.1
2022-12-11T19:55:58.477Z,110.4
2022-12-11T20:10:08.752Z,109.8
2022-12-11T20:24:15.303Z,108.8
2022-12-11T20:38:19.661Z,109.5
2022-12-11T20:52:27.397Z,110.3
2022-12-11T21:06:49.059Z,109.3
2022-12-11T21:20:54.218Z,109
2022-12-11T21:34:59.860Z,109.7
2022-12-11T21:49:13.023Z,110.2
2022-12-11T22:03:15.610Z,110.1
2022-12-11T22:17:21.653Z,109.3
2022-12-11T22:31:26.567Z,108
2022-12-11T22:45:32.463Z,107.9
2022-12-11T22:59:38.733Z,107.9
2022-12-11T23:13:48.126Z,107.9
2022-12-11T23:27:55.102Z,107.5
2022-12-11T23:41:59.005Z,106.9
2022-12-11T23:56:04.419Z,107.1
